createdAt,value
2023-03-03T00:03:27.660Z,19.3
2023-03-03T00:09:20.385Z,19.3
2023-03-03T00:15:13.432Z,19.3
2023-03-03T00:21:06.822Z,19.3
2023-03-03T00:26:59.562Z,19.3
2023-03-03T00:32:20.991Z,19.3
2023-03-03T00:37:58.222Z,19.3
2023-03-03T00:43:51.150Z,19.3
2023-03-03T00:49:44.366Z,19.3
2023-03-03T00:55:38.016Z,19.3
2023-03-03T01:01:00.567Z,19.3
2023-03-03T01:06:53.313Z,19.3
2023-03-03T01:12:30.972Z,19.2
2023-03-03T01:18:09.365Z,19.3
2023-03-03T01:23:46.773Z,19.3
2023-03-03T01:29:08.393Z,19.3
2023-03-03T01:34:30.677Z,19.3
2023-03-03T01:40:07.124Z,19.2
2023-03-03T01:45:44.206Z,19.2
2023-03-03T01:51:06.101Z,19.3
2023-03-03T01:56:27.109Z,19.2
2023-03-03T02:01:48.316Z,19.2
2023-03-03T02:07:10.604Z,19.2
2023-03-03T02:12:32.970Z,19.2
2023-03-03T02:17:54.191Z,19.3
2023-03-03T02:23:00.656Z,19.3
2023-03-03T02:28:06.101Z,19.3
2023-03-03T02:33:27.620Z,19.4
2023-03-03T02:39:05.273Z,19.4
2023-03-03T02:44:41.706Z,19.5
2023-03-03T02:50:34.915Z,19.6
2023-03-03T02:56:12.201Z,19.7
2023-03-03T03:01:49.747Z,19.8
2023-03-03T03:07:26.046Z,19.9
2023-03-03T03:12:48.088Z,20
2023-03-03T03:18:24.844Z,20.1
2023-03-03T03:24:02.237Z,20.3
2023-03-03T03:29:40.308Z,20.4
2023-03-03T03:35:32.906Z,20.6
2023-03-03T03:41:08.942Z,20.8
2023-03-03T03:46:46.539Z,20.9
2023-03-03T03:52:38.491Z,20.9
2023-03-03T03:58:16.521Z,20.9
2023-03-03T04:03:54.272Z,21
2023-03-03T04:09:46.798Z,21.1
2023-03-03T04:21:20.679Z,21.2
2023-03-03T04:27:13.628Z,21.2
2023-03-03T04:32:53.857Z,21.3
2023-03-03T04:38:43.661Z,21.3
2023-03-03T04:44:38.785Z,21.3
2023-03-03T04:50:34.268Z,21.4
2023-03-03T04:56:26.726Z,21.4
2023-03-03T05:02:04.161Z,21.4
2023-03-03T05:07:42.277Z,21.5
2023-03-03T05:13:36.076Z,21.4
2023-03-03T05:19:28.676Z,21.5
2023-03-03T05:25:21.767Z,21.5
2023-03-03T05:31:15.033Z,21.6
2023-03-03T05:37:08.926Z,21.6
2023-03-03T05:42:46.694Z,21.6
2023-03-03T05:48:40.262Z,21.6
2023-03-03T05:54:32.534Z,21.6
2023-03-03T06:00:25.222Z,21.5
2023-03-03T06:06:19.371Z,21.6
2023-03-03T06:11:57.257Z,21.6
2023-03-03T06:17:52.016Z,21.6
2023-03-03T06:23:45.924Z,21.5
2023-03-03T06:29:38.968Z,21.5
2023-03-03T06:35:16.646Z,21.5
2023-03-03T06:41:10.487Z,21.5
2023-03-03T06:47:04.009Z,21.5
2023-03-03T06:52:40.929Z,21.5
2023-03-03T06:58:33.922Z,21.4
2023-03-03T07:04:12.577Z,21.4
2023-03-03T07:10:05.047Z,21.4
2023-03-03T07:16:01.197Z,21.4
2023-03-03T07:21:54.872Z,21.4
2023-03-03T07:27:48.115Z,21.4
2023-03-03T07:33:26.101Z,21.4
2023-03-03T07:39:20.171Z,21.4
2023-03-03T07:45:15.707Z,21.4
2023-03-03T07:51:09.416Z,21.4
2023-03-03T07:57:02.400Z,21.4
2023-03-03T08:02:54.720Z,21.4
2023-03-03T08:08:34.285Z,21.4
2023-03-03T08:14:27.483Z,21.4
2023-03-03T08:20:20.376Z,21.4
2023-03-03T08:26:13.605Z,21.4
2023-03-03T08:32:31.451Z,21.4
2023-03-03T08:38:25.518Z,21.4
2023-03-03T08:44:19.413Z,21.4
2023-03-03T08:50:12.914Z,21.4
2023-03-03T08:56:06.306Z,21.4
2023-03-03T09:02:14.397Z,21.4
2023-03-03T09:08:07.995Z,21.4
2023-03-03T09:14:00.189Z,21.3
2023-03-03T09:19:54.121Z,21.3
2023-03-03T09:25:47.060Z,21.4
2023-03-03T09:31:40.921Z,21.3
2023-03-03T09:37:34.070Z,21.3
2023-03-03T09:43:26.470Z,21.3
2023-03-03T09:49:07.219Z,21.3
2023-03-03T09:55:06.082Z,21.3
2023-03-03T10:01:17.581Z,21.3
2023-03-03T10:07:15.478Z,21.3
2023-03-03T10:13:09.469Z,21.3
2023-03-03T10:19:06.280Z,21.3
2023-03-03T10:25:08.456Z,21.3
2023-03-03T10:31:45.172Z,21.3
2023-03-03T10:37:53.689Z,21.3
2023-03-03T10:44:03.034Z,21.3
2023-03-03T10:49:57.914Z,21.3
2023-03-03T10:55:50.797Z,21.3
2023-03-03T11:01:58.025Z,21.3
2023-03-03T11:07:55.568Z,21.3
2023-03-03T11:13:33.978Z,21.3
2023-03-03T11:19:27.958Z,21.3
2023-03-03T11:25:21.307Z,21.3
2023-03-03T11:31:14.705Z,21.3
2023-03-03T11:37:09.234Z,21.3
2023-03-03T11:42:47.269Z,21.3
2023-03-03T11:48:56.318Z,21.3
2023-03-03T11:54:49.760Z,21.3
2023-03-03T12:00:44.847Z,21.3
2023-03-03T12:06:40.592Z,21.3
2023-03-03T12:12:42.253Z,21.3
2023-03-03T12:18:20.167Z,21.3
2023-03-03T12:24:28.934Z,21.3
2023-03-03T12:30:22.414Z,21.3
2023-03-03T12:36:17.278Z,21.3
2023-03-03T12:42:24.178Z,21.3
2023-03-03T12:48:17.455Z,21.3
2023-03-03T12:54:22.435Z,21.3
2023-03-03T13:00:15.712Z,21.3
2023-03-03T13:06:14.316Z,21.3
2023-03-03T13:12:10.539Z,21.3
2023-03-03T13:18:26.477Z,21.2
2023-03-03T13:24:19.521Z,21.2
2023-03-03T13:30:13.344Z,21.2
2023-03-03T13:35:52.690Z,21.2
2023-03-03T13:41:45.860Z,21.2
2023-03-03T13:47:38.815Z,21.2
2023-03-03T13:53:31.651Z,21.2
2023-03-03T13:59:24.686Z,21.2
2023-03-03T14:05:19.154Z,21.3
2023-03-03T14:11:12.154Z,21.2
2023-03-03T14:17:06.305Z,21.3
2023-03-03T14:22:59.796Z,21.3
2023-03-03T14:28:52.625Z,21.2
2023-03-03T14:35:02.203Z,21.2
2023-03-03T14:40:55.856Z,21.2
2023-03-03T14:46:52.836Z,21.2
2023-03-03T14:52:47.610Z,21.2
2023-03-03T14:58:41.421Z,21.2
2023-03-03T15:04:21.584Z,21.2
2023-03-03T15:44:18.415Z,21.1
2023-03-03T15:55:44.005Z,21.1
2023-03-03T16:07:14.332Z,21.1
2023-03-03T16:13:08.256Z,21.1
2023-03-03T16:19:01.844Z,21.1
2023-03-03T16:24:56.231Z,21.1
2023-03-03T16:30:35.173Z,21.1
2023-03-03T16:36:29.469Z,21.1
2023-03-03T16:42:22.737Z,21.1
2023-03-03T16:48:15.619Z,21
2023-03-03T16:53:51.898Z,21.1
2023-03-03T16:59:29.034Z,21.1
2023-03-03T17:05:21.866Z,21
2023-03-03T17:11:27.495Z,21
2023-03-03T17:17:02.569Z,21
2023-03-03T17:22:55.712Z,21
2023-03-03T17:28:49.429Z,21
2023-03-03T17:34:43.008Z,21
2023-03-03T17:40:21.696Z,21
2023-03-03T17:46:17.074Z,21
2023-03-03T17:52:09.456Z,21
2023-03-03T17:58:02.646Z,20.9
2023-03-03T18:03:55.522Z,20.9
2023-03-03T18:10:03.183Z,21
2023-03-03T18:15:40.355Z,20.9
2023-03-03T18:21:35.171Z,20.9
2023-03-03T18:27:29.503Z,20.9
2023-03-03T18:33:21.878Z,20.9
2023-03-03T18:39:15.080Z,20.9
2023-03-03T18:45:07.477Z,20.9
2023-03-03T18:51:00.584Z,20.9
2023-03-03T18:56:52.988Z,20.9
2023-03-03T19:02:14.273Z,20.9
2023-03-03T19:08:08.352Z,20.9
2023-03-03T19:13:45.664Z,20.9
2023-03-03T19:19:22.230Z,20.9
2023-03-03T19:25:18.177Z,20.9
2023-03-03T19:31:11.024Z,20.9
2023-03-03T19:37:04.786Z,20.9
2023-03-03T19:43:01.203Z,20.9
2023-03-03T19:48:54.946Z,20.9
2023-03-03T19:54:46.704Z,20.9
2023-03-03T20:00:39.987Z,20.9
2023-03-03T20:06:34.005Z,20.9
2023-03-03T20:12:26.622Z,20.9
2023-03-03T20:18:21.303Z,20.9
2023-03-03T20:24:12.663Z,20.9
2023-03-03T20:30:06.369Z,20.9
2023-03-03T20:35:59.450Z,20.8
2023-03-03T20:41:36.489Z,20.8
2023-03-03T20:47:29.787Z,20.8
2023-03-03T20:53:23.336Z,20.8
2023-03-03T20:59:14.952Z,20.8
2023-03-03T21:05:06.855Z,20.8
2023-03-03T21:10:28.526Z,20.8
2023-03-03T21:16:21.495Z,20.8
2023-03-03T21:22:18.783Z,20.8
2023-03-03T21:27:56.939Z,20.8
2023-03-03T21:33:51.703Z,20.8
2023-03-03T21:39:46.504Z,20.8
2023-03-03T21:45:39.512Z,20.8
2023-03-03T21:51:17.326Z,20.8
2023-03-03T21:56:54.796Z,20.8
2023-03-03T22:02:48.790Z,20.8
2023-03-03T22:08:42.820Z,20.7
2023-03-03T22:14:35.240Z,20.8
2023-03-03T22:20:28.060Z,20.7
2023-03-03T22:26:21.078Z,20.7
2023-03-03T22:32:15.018Z,20.7
2023-03-03T22:38:08.134Z,20.7
2023-03-03T22:44:01.290Z,20.7
2023-03-03T22:49:52.682Z,20.7
2023-03-03T22:55:44.845Z,20.7
2023-03-03T23:01:37.942Z,20.7
2023-03-03T23:07:31.244Z,20.7
2023-03-03T23:13:09.220Z,20.7
2023-03-03T23:19:01.373Z,20.7
2023-03-03T23:24:38.348Z,20.7
2023-03-03T23:30:30.342Z,20.7
2023-03-03T23:36:07.430Z,20.7
2023-03-03T23:41:59.238Z,20.6
2023-03-03T23:47:52.057Z,20.6
2023-03-03T23:53:45.412Z,20.6
2023-03-03T23:59:38.038Z,20.6
